Time;durP1;ratioP1;P1;durP2;ratioP2;P2;SDS_P1;SDS_P2;PMS_P1;PMS_P2;Temp;Humidity;BMP_temperature;BMP_pressure;BME280_temperature;BME280_humidity;BME280_pressure;Samples;Min_cycle;Max_cycle;Signal;HPM_P1;HPM_P2
2024/02/11 00:00:32;;;;;;;102.20;43.80;;;;;;;6.64;100.00;98794.08;103854;1316;25433;-56
2024/02/11 00:02:58;;;;;;;100.20;45.10;;;;;;;6.63;100.00;98800.63;103438;1314;22633;-57
2024/02/11 00:05:27;;;;;;;109.60;43.40;;;;;;;6.61;100.00;98798.45;103347;1306;22604;-57
2024/02/11 00:07:53;;;;;;;114.50;44.30;;;;;;;6.61;100.00;98794.51;103395;1316;22597;-54
2024/02/11 00:10:19;;;;;;;117.40;47.10;;;;;;;6.60;100.00;98794.20;103359;1311;24109;-54
2024/02/11 00:12:45;;;;;;;108.30;43.30;;;;;;;6.61;100.00;98792.48;103283;1294;22581;-57
2024/02/11 00:15:11;;;;;;;106.90;43.20;;;;;;;6.61;100.00;98787.86;103403;1316;22622;-56
2024/02/11 00:17:37;;;;;;;101.10;43.20;;;;;;;6.62;100.00;98784.56;103373;1313;22580;-58
2024/02/11 00:20:13;;;;;;;88.80;39.80;;;;;;;6.61;100.00;98785.09;103439;1314;22595;-57
2024/02/11 00:22:40;;;;;;;103.50;42.20;;;;;;;6.61;100.00;98783.05;106888;1316;22245;-58
2024/02/11 00:25:10;;;;;;;96.70;40.40;;;;;;;6.60;100.00;98781.89;105169;1300;22595;-55
2024/02/11 00:27:42;;;;;;;99.20;39.70;;;;;;;6.60;100.00;98779.14;106693;1317;22990;-57
2024/02/11 00:30:09;;;;;;;103.10;41.10;;;;;;;6.61;100.00;98778.27;104608;1311;22684;-57
2024/02/11 00:32:38;;;;;;;101.90;39.80;;;;;;;6.62;100.00;98778.05;106852;1313;22699;-57
2024/02/11 00:35:04;;;;;;;88.30;37.50;;;;;;;6.64;100.00;98779.89;106903;1316;22653;-57
2024/02/11 00:37:30;;;;;;;86.00;37.50;;;;;;;6.64;100.00;98782.45;106812;1306;22415;-56
2024/02/11 00:39:56;;;;;;;95.20;38.60;;;;;;;6.64;100.00;98778.33;106853;1316;22246;-58
2024/02/11 00:42:27;;;;;;;105.40;42.10;;;;;;;6.65;100.00;98777.80;106887;1316;22360;-58
2024/02/11 00:44:53;;;;;;;85.30;36.40;;;;;;;6.66;100.00;98778.30;106861;1315;23874;-58
2024/02/11 00:47:40;;;;;;;87.70;37.70;;;;;;;6.68;100.00;98773.96;106931;1316;23141;-58
2024/02/11 00:50:05;;;;;;;93.40;38.60;;;;;;;6.67;100.00;98770.21;106900;1316;23282;-58
2024/02/11 00:52:30;;;;;;;92.40;39.30;;;;;;;6.66;100.00;98772.46;106871;1308;23345;-56
2024/02/11 00:54:56;;;;;;;93.20;39.30;;;;;;;6.67;100.00;98768.52;106875;1309;23007;-56
2024/02/11 00:57:22;;;;;;;88.90;38.80;;;;;;;6.68;100.00;98771.41;106620;1308;22337;-58
2024/02/11 00:59:51;;;;;;;90.30;37.90;;;;;;;6.68;100.00;98768.99;106872;1314;22412;-57
2024/02/11 01:02:16;;;;;;;91.20;35.80;;;;;;;6.67;100.00;98766.98;106856;1303;22272;-58
2024/02/11 01:04:42;;;;;;;89.10;37.30;;;;;;;6.67;100.00;98771.75;106742;1310;22979;-58
2024/02/11 01:07:07;;;;;;;98.00;37.10;;;;;;;6.68;100.00;98774.31;106847;1297;23078;-57
2024/02/11 01:09:33;;;;;;;83.00;35.30;;;;;;;6.65;100.00;98771.29;106849;1316;22230;-55
2024/02/11 01:11:59;;;;;;;77.40;32.70;;;;;;;6.64;100.00;98766.36;106894;1313;22941;-58
2024/02/11 01:14:25;;;;;;;85.90;35.90;;;;;;;6.63;100.00;98765.19;106851;1313;22256;-56
2024/02/11 01:16:51;;;;;;;84.00;35.50;;;;;;;6.60;100.00;98766.47;106744;1309;22285;-57
2024/02/11 01:19:17;;;;;;;85.50;33.40;;;;;;;6.59;100.00;98769.75;106751;1316;22264;-58
2024/02/11 01:21:44;;;;;;;88.00;35.40;;;;;;;6.61;100.00;98767.98;106941;1316;22245;-57
2024/02/11 01:24:31;;;;;;;86.90;35.40;;;;;;;6.60;100.00;98767.15;106886;1316;22381;-53
2024/02/11 01:26:56;;;;;;;82.50;34.10;;;;;;;6.60;100.00;98762.38;106870;1294;22727;-57
2024/02/11 01:29:22;;;;;;;81.60;35.10;;;;;;;6.60;100.00;98758.44;106868;1316;22283;-57
2024/02/11 01:31:48;;;;;;;82.70;33.90;;;;;;;6.60;100.00;98755.17;106867;1313;24025;-55
2024/02/11 01:34:15;;;;;;;84.70;34.70;;;;;;;6.59;100.00;98752.48;106872;1316;23336;-57
2024/02/11 01:36:40;;;;;;;82.20;33.80;;;;;;;6.58;100.00;98750.27;106871;1293;22026;-58
2024/02/11 01:39:11;;;;;;;82.20;34.50;;;;;;;6.58;100.00;98752.33;106876;1316;22335;-56
2024/02/11 01:41:37;;;;;;;83.60;34.50;;;;;;;6.58;100.00;98743.78;106896;1313;22903;-56
2024/02/11 01:44:03;;;;;;;79.70;34.10;;;;;;;6.56;100.00;98744.84;106860;1316;22282;-58
2024/02/11 01:46:29;;;;;;;79.00;33.90;;;;;;;6.55;100.00;98741.98;104774;1316;22706;-55
2024/02/11 01:49:02;;;;;;;73.20;33.10;;;;;;;6.54;100.00;98742.01;103140;1300;22555;-56
2024/02/11 01:51:29;;;;;;;78.60;33.90;;;;;;;6.52;100.00;98742.41;103306;1311;22877;-54
2024/02/11 01:53:56;;;;;;;82.10;32.60;;;;;;;6.48;100.00;98737.56;103424;1316;22708;-56
2024/02/11 01:56:24;;;;;;;78.70;34.30;;;;;;;6.46;100.00;98731.46;103287;1316;22876;-54
2024/02/11 01:58:50;;;;;;;85.80;35.50;;;;;;;6.44;100.00;98729.30;106834;1298;22271;-57
2024/02/11 02:01:22;;;;;;;92.40;35.80;;;;;;;6.42;100.00;98726.96;106873;1313;23608;-55
2024/02/11 02:03:48;;;;;;;81.00;34.80;;;;;;;6.40;100.00;98729.42;106870;1316;22250;-57
2024/02/11 02:06:16;;;;;;;83.80;35.10;;;;;;;6.39;100.00;98724.48;106878;1316;22380;-57
2024/02/11 02:08:41;;;;;;;83.10;36.10;;;;;;;6.38;100.00;98723.31;106835;1295;23106;-54
2024/02/11 02:11:09;;;;;;;86.30;35.10;;;;;;;6.37;100.00;98721.61;106709;1316;23072;-58
2024/02/11 02:13:36;;;;;;;72.80;33.00;;;;;;;6.37;100.00;98724.36;106858;1316;22340;-57
2024/02/11 02:16:02;;;;;;;74.10;33.10;;;;;;;6.36;100.00;98729.19;106861;1308;22400;-57
2024/02/11 02:18:34;;;;;;;83.30;34.80;;;;;;;6.34;100.00;98725.33;106844;1294;22878;-55
2024/02/11 02:20:59;;;;;;;81.80;33.90;;;;;;;6.31;100.00;98721.11;106878;1316;23077;-56
2024/02/11 02:23:25;;;;;;;75.90;34.60;;;;;;;6.29;100.00;98715.86;106975;1316;22408;-55
2024/02/11 02:25:50;;;;;;;79.00;33.90;;;;;;;6.29;100.00;98717.23;106914;1316;22281;-54
2024/02/11 02:28:16;;;;;;;81.10;34.00;;;;;;;6.28;100.00;98715.89;106882;1298;22254;-55
2024/02/11 02:30:42;;;;;;;73.30;31.00;;;;;;;6.27;100.00;98713.86;106884;1316;22286;-56
2024/02/11 02:33:07;;;;;;;90.60;34.50;;;;;;;6.27;100.00;98709.42;103021;1316;5003727;-55
2024/02/11 02:35:33;;;;;;;69.20;31.80;;;;;;;6.26;100.00;98711.17;106858;1314;22272;-56
2024/02/11 02:37:59;;;;;;;65.60;29.10;;;;;;;6.25;100.00;98715.65;106857;1293;22420;-56
2024/02/11 02:40:26;;;;;;;82.90;34.30;;;;;;;6.24;100.00;98718.57;106900;1316;22243;-57
2024/02/11 02:42:52;;;;;;;76.30;32.50;;;;;;;6.22;100.00;98715.77;106910;1316;22429;-54
2024/02/11 02:45:18;;;;;;;85.10;33.90;;;;;;;6.19;100.00;98713.27;106879;1312;22377;-56
2024/02/11 02:47:46;;;;;;;80.80;34.50;;;;;;;6.19;100.00;98712.09;106700;1310;23342;-55
2024/02/11 02:50:15;;;;;;;89.50;35.50;;;;;;;6.19;100.00;98712.95;104365;1293;24261;-55
2024/02/11 02:52:43;;;;;;;94.80;38.20;;;;;;;6.18;100.00;98712.46;106871;1316;22272;-56
2024/02/11 02:55:08;;;;;;;84.30;34.20;;;;;;;6.16;100.00;98710.30;106920;1316;23234;-56
2024/02/11 02:57:37;;;;;;;87.70;35.30;;;;;;;6.17;100.00;98708.90;106984;1313;22662;-56
2024/02/11 03:00:06;;;;;;;83.40;35.30;;;;;;;6.17;100.00;98710.41;106868;1297;23116;-55
2024/02/11 03:02:32;;;;;;;91.10;37.40;;;;;;;6.17;100.00;98710.41;105673;1316;26494;-56
2024/02/11 03:04:58;;;;;;;78.90;32.60;;;;;;;6.17;100.00;98706.83;103321;1316;22561;-55
2024/02/11 03:07:24;;;;;;;88.20;36.00;;;;;;;6.18;100.00;98703.05;103356;1316;22704;-55
2024/02/11 03:09:49;;;;;;;94.20;38.30;;;;;;;6.15;100.00;98703.80;103369;1297;22562;-57
2024/02/11 03:12:15;;;;;;;89.10;36.70;;;;;;;6.14;100.00;98706.25;103274;1316;22944;-56
2024/02/11 03:14:40;;;;;;;89.80;37.60;;;;;;;6.12;100.00;98701.52;103316;1316;26607;-56
2024/02/11 03:17:07;;;;;;;96.50;39.60;;;;;;;6.12;100.00;98705.96;103262;1302;22621;-56
2024/02/11 03:19:32;;;;;;;83.40;35.90;;;;;;;6.11;100.00;98705.98;106834;1297;22272;-57
2024/02/11 03:21:58;;;;;;;98.80;40.60;;;;;;;6.08;100.00;98708.81;106876;1316;22271;-57
2024/02/11 03:24:23;;;;;;;96.00;39.40;;;;;;;6.06;100.00;98703.92;106886;1316;22240;-56
2024/02/11 03:26:49;;;;;;;96.40;39.00;;;;;;;6.05;100.00;98702.04;106718;1316;22257;-58
2024/02/11 03:29:15;;;;;;;99.50;39.90;;;;;;;6.06;100.00;98704.93;104371;1298;22565;-57
2024/02/11 03:31:41;;;;;;;97.50;38.90;;;;;;;6.07;100.00;98704.39;103344;1311;22572;-57
2024/02/11 03:34:07;;;;;;;100.10;41.10;;;;;;;6.07;100.00;98704.90;103329;1316;22569;-57
2024/02/11 03:36:33;;;;;;;95.60;39.90;;;;;;;6.07;100.00;98702.17;103385;1316;24303;-55
2024/02/11 03:38:58;;;;;;;100.10;40.60;;;;;;;6.05;100.00;98699.48;103307;1301;22606;-57
2024/02/11 03:41:24;;;;;;;103.60;40.50;;;;;;;6.04;100.00;98699.35;103378;1316;22652;-57
2024/02/11 03:43:49;;;;;;;108.40;43.50;;;;;;;6.04;100.00;98700.55;103314;1311;22980;-56
2024/02/11 03:46:15;;;;;;;107.20;42.50;;;;;;;6.04;100.00;98699.35;103369;1301;23406;-57
2024/02/11 03:48:43;;;;;;;109.10;43.90;;;;;;;6.04;100.00;98699.35;103354;1316;22585;-56
2024/02/11 03:51:09;;;;;;;113.50;44.30;;;;;;;6.03;100.00;98697.50;103393;1297;22576;-55
2024/02/11 03:53:34;;;;;;;118.40;44.20;;;;;;;6.02;100.00;98699.05;103355;1301;24282;-56
2024/02/11 03:56:05;;;;;;;106.30;43.30;;;;;;;6.02;100.00;98697.02;103286;1316;22589;-56
2024/02/11 03:58:34;;;;;;;97.60;40.30;;;;;;;6.01;100.00;98694.46;106806;1313;22817;-57
2024/02/11 04:01:00;;;;;;;107.50;43.60;;;;;;;6.01;100.00;98695.48;106926;1295;22310;-57
2024/02/11 04:03:25;;;;;;;112.30;43.60;;;;;;;6.01;100.00;98697.70;106907;1294;22358;-56
2024/02/11 04:05:55;;;;;;;108.00;42.80;;;;;;;6.02;100.00;98694.45;106897;1316;22728;-56
2024/02/11 04:08:21;;;;;;;100.60;41.80;;;;;;;6.03;100.00;98695.63;106894;1316;22251;-57
2024/02/11 04:10:52;;;;;;;103.10;42.90;;;;;;;6.04;100.00;98693.02;106832;1297;22343;-58
2024/02/11 04:13:24;;;;;;;97.10;38.50;;;;;;;6.06;100.00;98691.10;104624;1316;22603;-56
2024/02/11 04:15:56;;;;;;;100.00;41.60;;;;;;;6.08;100.00;98694.09;103419;1310;22686;-56
2024/02/11 04:18:23;;;;;;;101.00;43.20;;;;;;;6.09;100.00;98693.55;106850;1310;22358;-56
2024/02/11 04:20:49;;;;;;;97.70;41.80;;;;;;;6.09;100.00;98692.53;106833;1297;22359;-57
2024/02/11 04:23:14;;;;;;;100.00;41.20;;;;;;;6.09;100.00;98694.07;106720;1316;22325;-56
2024/02/11 04:25:41;;;;;;;98.70;43.30;;;;;;;6.10;100.00;98694.57;104507;1310;25496;-56
2024/02/11 04:28:10;;;;;;;98.80;41.60;;;;;;;6.09;100.00;98692.86;105367;1316;22817;-57
2024/02/11 04:30:38;;;;;;;100.10;43.30;;;;;;;6.11;100.00;98696.58;103048;1307;23945;-57
2024/02/11 04:33:07;;;;;;;105.20;44.20;;;;;;;6.10;100.00;98690.45;103039;1316;25376;-60
2024/02/11 04:35:33;;;;;;;97.50;42.70;;;;;;;6.08;100.00;98690.15;103107;1292;22592;-56
2024/02/11 04:38:00;;;;;;;84.30;34.80;;;;;;;6.07;100.00;98681.65;103128;1316;24281;-55
2024/02/11 04:40:25;;;;;;;105.00;42.20;;;;;;;6.06;100.00;98682.02;104585;1294;22893;-56
2024/02/11 04:42:56;;;;;;;102.50;42.50;;;;;;;6.05;100.00;98676.23;103202;1316;24298;-57
2024/02/11 04:45:24;;;;;;;112.90;43.50;;;;;;;6.04;100.00;98677.29;103348;1316;22618;-63
2024/02/11 04:48:00;;;;;;;101.80;41.20;;;;;;;6.03;100.00;98675.25;105904;1307;23222;-57
2024/02/11 04:50:27;;;;;;;119.30;45.20;;;;;;;6.03;100.00;98675.95;103354;1295;22637;-57
2024/02/11 04:52:55;;;;;;;106.80;41.20;;;;;;;6.04;100.00;98673.52;103414;1316;457057;-56
2024/02/11 04:55:24;;;;;;;111.90;45.20;;;;;;;6.04;100.00;98672.33;103382;1316;22933;-57
2024/02/11 04:57:51;;;;;;;109.10;44.30;;;;;;;6.03;100.00;98676.80;103383;1310;22826;-58
2024/02/11 05:00:23;;;;;;;116.20;45.10;;;;;;;6.03;100.00;98674.58;103378;1310;25542;-57
2024/02/11 05:02:54;;;;;;;115.20;44.30;;;;;;;6.04;100.00;98669.23;106820;1294;22317;-57
2024/02/11 05:05:27;;;;;;;129.50;48.10;;;;;;;6.03;100.00;98670.12;106874;1310;22518;-57
2024/02/11 05:07:53;;;;;;;102.30;42.50;;;;;;;6.02;100.00;98671.01;106861;1310;23116;-58
2024/02/11 05:10:21;;;;;;;111.90;45.20;;;;;;;6.04;100.00;98662.92;106792;1317;22450;-57
2024/02/11 05:12:48;;;;;;;116.30;45.00;;;;;;;6.05;100.00;98664.77;106896;1296;22281;-58
2024/02/11 05:15:14;;;;;;;117.60;44.70;;;;;;;6.05;100.00;98671.63;106878;1308;22338;-55
2024/02/11 05:17:41;;;;;;;106.50;41.20;;;;;;;6.06;100.00;98663.53;106872;1310;22435;-58
2024/02/11 05:20:14;;;;;;;110.30;43.90;;;;;;;6.09;100.00;98656.61;105312;1310;22565;-58
2024/02/11 05:22:44;;;;;;;111.90;42.50;;;;;;;6.09;100.00;98658.34;104726;1298;22635;-58
2024/02/11 05:25:19;;;;;;;111.60;45.70;;;;;;;6.11;100.00;98661.02;103309;1316;22759;-54
2024/02/11 05:27:56;;;;;;;113.50;44.70;;;;;;;6.12;100.00;98660.63;106902;1316;22320;-56
2024/02/11 05:30:24;;;;;;;115.30;43.50;;;;;;;6.13;100.00;98659.92;105438;1308;25279;-57
2024/02/11 05:32:53;;;;;;;109.90;42.80;;;;;;;6.15;100.00;98656.10;104863;1294;23917;-57
2024/02/11 05:35:23;;;;;;;114.10;44.20;;;;;;;6.14;100.00;98655.77;103461;1316;24274;-57
2024/02/11 05:37:57;;;;;;;112.00;45.40;;;;;;;6.15;100.00;98657.13;103431;1301;22581;-57
2024/02/11 05:40:27;;;;;;;117.70;46.00;;;;;;;6.14;100.00;98650.98;103412;1316;22691;-58
2024/02/11 05:42:57;;;;;;;110.30;43.60;;;;;;;6.15;100.00;98652.50;103325;1297;25442;-57
2024/02/11 05:45:23;;;;;;;115.60;44.30;;;;;;;6.15;100.00;98650.27;104444;1300;22571;-56
2024/02/11 05:47:52;;;;;;;110.00;44.50;;;;;;;6.15;100.00;98648.91;103391;1314;23946;-57
2024/02/11 05:50:19;;;;;;;120.40;46.30;;;;;;;6.16;100.00;98650.08;103370;1303;23340;-58
2024/02/11 05:52:45;;;;;;;95.40;39.60;;;;;;;6.15;100.00;98650.09;103333;1298;25405;-56
2024/02/11 05:55:16;;;;;;;116.50;43.90;;;;;;;6.16;100.00;98651.77;103427;1316;22569;-57
2024/02/11 05:57:45;;;;;;;111.50;44.70;;;;;;;6.16;100.00;98655.02;103168;1310;22608;-57
2024/02/11 06:00:13;;;;;;;111.20;45.30;;;;;;;6.16;100.00;98657.41;103367;1310;327137;-58
2024/02/11 06:02:44;;;;;;;107.10;41.70;;;;;;;6.18;100.00;98657.89;104545;1297;25449;-56
2024/02/11 06:05:12;;;;;;;110.60;44.10;;;;;;;6.19;100.00;98649.30;106760;1313;22666;-58
2024/02/11 06:07:43;;;;;;;106.40;44.10;;;;;;;6.19;100.00;98654.27;106830;1313;22381;-57
2024/02/11 06:10:11;;;;;;;111.60;45.00;;;;;;;6.19;100.00;98655.96;103937;1317;23074;-57
2024/02/11 06:12:38;;;;;;;108.70;45.20;;;;;;;6.21;100.00;98655.21;104088;1297;24266;-56
2024/02/11 06:15:07;;;;;;;109.50;40.70;;;;;;;6.22;100.00;98655.05;103341;1301;22690;-58
2024/02/11 06:17:34;;;;;;;107.90;43.90;;;;;;;6.22;100.00;98653.67;103338;1317;22612;-57
2024/02/11 06:20:00;;;;;;;109.00;45.20;;;;;;;6.23;100.00;98650.02;103384;1313;25277;-57
2024/02/11 06:22:26;;;;;;;113.90;45.40;;;;;;;6.22;100.00;98652.96;103465;1316;22602;-55
2024/02/11 06:24:52;;;;;;;107.80;43.40;;;;;;;6.23;100.00;98651.91;103454;1310;22588;-56
2024/02/11 06:27:18;;;;;;;107.60;44.40;;;;;;;6.23;100.00;98655.86;103391;1311;23394;-57
2024/02/11 06:29:44;;;;;;;115.50;46.90;;;;;;;6.23;100.00;98658.08;103363;1313;22570;-57
2024/02/11 06:32:10;;;;;;;114.00;45.00;;;;;;;6.23;100.00;98660.64;103418;1310;22580;-54
2024/02/11 06:34:36;;;;;;;105.60;43.40;;;;;;;6.24;100.00;98663.17;103372;1298;23167;-57
2024/02/11 06:37:02;;;;;;;110.70;44.90;;;;;;;6.23;100.00;98661.84;106698;1314;22799;-58
2024/02/11 06:39:28;;;;;;;99.00;43.30;;;;;;;6.23;100.00;98659.07;106794;1302;23391;-57
2024/02/11 06:41:53;;;;;;;100.60;42.00;;;;;;;6.24;100.00;98664.87;106391;1297;22565;-58
2024/02/11 06:44:26;;;;;;;101.30;43.20;;;;;;;6.24;100.00;98663.83;103392;1298;22733;-57
2024/02/11 06:46:57;;;;;;;100.20;41.60;;;;;;;6.26;100.00;98668.56;103593;1303;24431;-56
2024/02/11 06:49:23;;;;;;;103.10;41.40;;;;;;;6.28;100.00;98669.37;106747;1316;22408;-56
2024/02/11 06:51:51;;;;;;;104.70;42.30;;;;;;;6.29;100.00;98671.89;104691;1314;23325;-58
2024/02/11 06:54:20;;;;;;;104.00;42.80;;;;;;;6.31;100.00;98669.95;103608;1300;24189;-57
2024/02/11 06:56:47;;;;;;;106.30;42.50;;;;;;;6.33;100.00;98668.19;103697;1313;22587;-56
2024/02/11 06:59:14;;;;;;;104.70;43.60;;;;;;;6.34;100.00;98669.20;103896;1303;22671;-58
2024/02/11 07:01:42;;;;;;;102.30;45.20;;;;;;;6.34;100.00;98674.32;106785;1309;22362;-58
2024/02/11 07:04:12;;;;;;;111.30;43.50;;;;;;;6.36;100.00;98676.81;106840;1296;22270;-57
2024/02/11 07:06:44;;;;;;;105.60;45.10;;;;;;;6.38;100.00;98678.66;106872;1316;22353;-57
2024/02/11 07:09:14;;;;;;;104.40;43.00;;;;;;;6.39;100.00;98680.31;106884;1316;23037;-58
2024/02/11 07:11:40;;;;;;;96.70;41.70;;;;;;;6.42;100.00;98677.33;106857;1310;22506;-57
2024/02/11 07:14:07;;;;;;;105.20;45.70;;;;;;;6.45;100.00;98678.62;106806;1298;22145;-57
2024/02/11 07:16:38;;;;;;;84.50;38.90;;;;;;;6.46;100.00;98678.56;106775;1316;22350;-58
2024/02/11 07:19:07;;;;;;;101.90;42.00;;;;;;;6.50;100.00;98682.05;106860;1310;22336;-57
2024/02/11 07:21:34;;;;;;;93.20;42.00;;;;;;;6.54;100.00;98680.39;106906;1316;22286;-58
2024/02/11 07:24:00;;;;;;;98.40;44.20;;;;;;;6.55;100.00;98680.69;106895;1294;22346;-59
2024/02/11 07:26:47;;;;;;;86.70;41.00;;;;;;;6.58;100.00;98675.95;107010;1297;23220;-57
2024/02/11 07:29:14;;;;;;;91.70;41.20;;;;;;;6.59;100.00;98677.48;107021;1316;22270;-58
2024/02/11 07:31:39;;;;;;;85.80;40.20;;;;;;;6.60;100.00;98677.27;106975;1316;22763;-58
2024/02/11 07:34:05;;;;;;;88.60;39.80;;;;;;;6.63;100.00;98675.83;106937;1296;22816;-57
2024/02/11 07:36:31;;;;;;;89.40;40.80;;;;;;;6.65;100.00;98676.45;106258;1310;22580;-57
2024/02/11 07:38:57;;;;;;;96.10;42.50;;;;;;;6.65;100.00;98675.08;103743;1316;22580;-56
2024/02/11 07:41:23;;;;;;;90.10;39.70;;;;;;;6.65;100.00;98679.19;103699;1310;23764;-57
2024/02/11 07:43:49;;;;;;;99.80;43.80;;;;;;;6.66;100.00;98677.80;103784;1294;22624;-57
2024/02/11 07:46:16;;;;;;;98.90;42.60;;;;;;;6.67;100.00;98677.42;104949;1309;24285;-57
2024/02/11 07:48:42;;;;;;;100.80;43.00;;;;;;;6.68;100.00;98675.85;103606;1316;22575;-58
2024/02/11 07:51:08;;;;;;;94.90;42.90;;;;;;;6.68;100.00;98680.12;106867;1311;22454;-57
2024/02/11 07:53:34;;;;;;;95.10;41.30;;;;;;;6.70;100.00;98675.12;105973;1310;24074;-59
2024/02/11 07:56:20;;;;;;;90.00;40.90;;;;;;;6.70;100.00;98680.42;104848;1294;22613;-57
2024/02/11 07:58:46;;;;;;;89.00;39.90;;;;;;;6.71;100.00;98679.70;103455;1309;25400;-57
2024/02/11 08:01:12;;;;;;;101.70;42.50;;;;;;;6.72;100.00;98680.17;103435;1303;25349;-59
2024/02/11 08:03:38;;;;;;;92.50;41.90;;;;;;;6.73;100.00;98677.73;103374;1310;23341;-57
2024/02/11 08:06:09;;;;;;;98.20;43.20;;;;;;;6.78;100.00;98681.16;103417;1297;22565;-54
2024/02/11 08:08:36;;;;;;;92.10;41.20;;;;;;;6.80;100.00;98684.34;106683;1310;22787;-58
2024/02/11 08:11:01;;;;;;;92.30;42.60;;;;;;;6.83;100.00;98687.14;106850;1311;22405;-58
2024/02/11 08:13:27;;;;;;;93.10;41.60;;;;;;;6.84;100.00;98688.14;106853;1310;22333;-59
2024/02/11 08:15:53;;;;;;;87.00;41.80;;;;;;;6.84;100.00;98683.51;106922;1298;22741;-59
2024/02/11 08:18:18;;;;;;;84.90;39.40;;;;;;;6.84;100.00;98689.85;106879;1316;22353;-58
2024/02/11 08:20:44;;;;;;;84.10;41.60;;;;;;;6.87;100.00;98689.59;106758;1316;22289;-59
2024/02/11 08:23:09;;;;;;;85.60;38.90;;;;;;;6.89;100.00;98688.15;106929;1311;22329;-59
2024/02/11 08:25:38;;;;;;;84.60;41.10;;;;;;;6.92;100.00;98685.15;106855;1297;22765;-58
2024/02/11 08:28:07;;;;;;;90.20;44.20;;;;;;;6.94;100.00;98683.87;106927;1313;23073;-59
2024/02/11 08:30:32;;;;;;;85.80;42.10;;;;;;;6.96;100.00;98678.33;106897;1310;22324;-58
2024/02/11 08:32:59;;;;;;;92.70;45.40;;;;;;;6.99;100.00;98678.75;106858;1316;22397;-58
2024/02/11 08:35:40;;;;;;;85.30;42.60;;;;;;;7.03;100.00;98680.88;106874;1295;22792;-58
2024/02/11 08:38:06;;;;;;;81.30;39.20;;;;;;;7.06;100.00;98679.20;106812;1310;22564;-59
2024/02/11 08:40:31;;;;;;;82.60;40.70;;;;;;;7.08;100.00;98683.97;106856;1310;22717;-59
2024/02/11 08:42:57;;;;;;;78.80;39.40;;;;;;;7.11;100.00;98682.14;103169;1310;23180;-57
2024/02/11 08:45:24;;;;;;;82.10;38.60;;;;;;;7.13;100.00;98686.20;103355;1295;25530;-57
2024/02/11 08:47:50;;;;;;;85.70;40.40;;;;;;;7.17;100.00;98689.30;103363;1310;22825;-56
2024/02/11 08:50:16;;;;;;;90.00;42.50;;;;;;;7.21;100.00;98696.89;103426;1301;22698;-56
2024/02/11 08:52:43;;;;;;;88.80;39.90;;;;;;;7.22;100.00;98695.48;103412;1309;23083;-56
2024/02/11 08:55:11;;;;;;;84.30;41.30;;;;;;;7.24;100.00;98691.99;103375;1294;22966;-59
2024/02/11 08:57:37;;;;;;;80.40;40.10;;;;;;;7.28;100.00;98685.65;103547;1294;22704;-54
2024/02/11 09:00:07;;;;;;;85.20;41.10;;;;;;;7.29;100.00;98688.02;104025;1301;21927;-57
2024/02/11 09:02:32;;;;;;;80.50;38.20;;;;;;;7.29;100.00;98690.92;104056;1309;22617;-56
2024/02/11 09:04:58;;;;;;;82.00;40.80;;;;;;;7.28;100.00;98689.23;103574;1312;22787;-55
2024/02/11 09:07:23;;;;;;;83.00;41.00;;;;;;;7.28;100.00;98687.20;103466;1304;22565;-55
2024/02/11 09:09:49;;;;;;;87.90;41.60;;;;;;;7.30;100.00;98687.28;103609;1309;24318;-54
2024/02/11 09:12:15;;;;;;;82.60;41.70;;;;;;;7.34;100.00;98686.85;103572;1311;23640;-55
2024/02/11 09:14:43;;;;;;;85.80;41.50;;;;;;;7.36;100.00;98686.77;103416;1310;22562;-56
2024/02/11 09:17:11;;;;;;;78.20;37.10;;;;;;;7.41;100.00;98685.23;103339;1293;22707;-55
2024/02/11 09:19:37;;;;;;;77.10;38.60;;;;;;;7.46;100.00;98685.04;106817;1310;22270;-56
2024/02/11 09:22:05;;;;;;;72.00;37.70;;;;;;;7.49;100.00;98683.57;106866;1310;23034;-56
2024/02/11 09:24:34;;;;;;;81.20;40.90;;;;;;;7.55;100.00;98684.05;106769;1311;22405;-56
2024/02/11 09:27:00;;;;;;;74.60;37.90;;;;;;;7.61;100.00;98683.65;106885;1294;22261;-56
2024/02/11 09:29:26;;;;;;;87.30;41.50;;;;;;;7.64;100.00;98686.64;106883;1310;22303;-56
2024/02/11 09:31:52;;;;;;;77.70;39.10;;;;;;;7.66;100.00;98685.20;106870;1311;22827;-55
2024/02/11 09:34:21;;;;;;;79.70;39.80;;;;;;;7.67;100.00;98684.33;106877;1305;22328;-56
2024/02/11 09:36:47;;;;;;;78.20;40.70;;;;;;;7.68;100.00;98685.13;106725;1294;22848;-55
2024/02/11 09:39:15;;;;;;;76.60;42.90;;;;;;;7.72;100.00;98682.25;106804;1310;22449;-56
2024/02/11 09:41:41;;;;;;;72.40;40.60;;;;;;;7.76;100.00;98686.77;106650;1310;22337;-54
2024/02/11 09:44:10;;;;;;;72.20;39.40;;;;;;;7.77;100.00;98688.23;106769;1310;22223;-55
2024/02/11 09:46:39;;;;;;;70.20;37.60;;;;;;;7.76;100.00;98690.70;106770;1302;23141;-53
2024/02/11 09:49:09;;;;;;;66.20;38.40;;;;;;;7.77;100.00;98691.00;106894;1316;22256;-55
2024/02/11 09:51:34;;;;;;;72.70;38.90;;;;;;;7.80;100.00;98687.27;106909;1310;23065;-56
2024/02/11 09:54:12;;;;;;;;;;;;;;;;;;;;;
2024/02/11 09:56:38;;;;;;;69.80;36.50;;;;;;;7.84;100.00;98684.54;106813;1293;23136;-57
2024/02/11 09:59:03;;;;;;;60.80;35.10;;;;;;;7.84;100.00;98681.09;106797;1309;22384;-56
2024/02/11 10:01:32;;;;;;;64.90;36.00;;;;;;;7.86;100.00;98681.88;106829;1310;22440;-56
2024/02/11 10:04:04;;;;;;;71.40;38.40;;;;;;;7.90;100.00;98685.52;106775;1310;22346;-57
2024/02/11 10:06:42;;;;;;;68.20;36.80;;;;;;;7.94;100.00;98684.33;106790;1295;22488;-56
2024/02/11 10:09:12;;;;;;;63.30;35.00;;;;;;;7.97;100.00;98684.92;106772;1311;22372;-57
2024/02/11 10:14:13;;;;;;;67.50;36.30;;;;;;;8.04;100.00;98675.40;103554;1298;545647;-52
2024/02/11 10:16:40;;;;;;;70.60;37.40;;;;;;;8.04;100.00;98675.75;103814;1301;22747;-55
2024/02/11 10:19:06;;;;;;;68.00;36.10;;;;;;;8.06;100.00;98677.05;106813;1301;23133;-54
2024/02/11 10:21:34;;;;;;;62.40;35.20;;;;;;;8.08;100.00;98674.06;106961;1301;22999;-56
2024/02/11 10:24:00;;;;;;;;;;;;;;;8.06;100.00;98675.85;104520;1295;22907;-59
2024/02/11 10:26:25;;;;;;;65.60;35.60;;;;;;;8.06;100.00;98679.81;103088;1304;22582;-58
2024/02/11 10:28:51;;;;;;;67.10;34.90;;;;;;;8.06;100.00;98671.73;103115;1301;411153;-58
2024/02/11 10:31:16;;;;;;;61.90;33.90;;;;;;;8.04;100.00;98672.99;103492;1312;24469;-59
2024/02/11 10:33:42;;;;;;;61.00;34.80;;;;;;;8.04;100.00;98669.05;103540;1295;22572;-58
2024/02/11 10:36:11;;;;;;;63.80;35.60;;;;;;;8.09;100.00;98665.29;103596;1313;24243;-59
2024/02/11 10:38:36;;;;;;;57.90;33.90;;;;;;;8.08;100.00;98669.09;107056;1313;22335;-59
2024/02/11 10:41:03;;;;;;;62.90;34.70;;;;;;;8.10;100.00;98661.79;107083;1313;22267;-59
2024/02/11 10:43:33;;;;;;;64.10;36.80;;;;;;;8.16;100.00;98658.98;107055;1298;22420;-59
2024/02/11 10:46:01;;;;;;;63.90;36.90;;;;;;;8.25;100.00;98655.38;104230;1310;207311;-59
2024/02/11 10:48:27;;;;;;;65.00;37.00;;;;;;;8.35;100.00;98649.70;106765;1317;22251;-59
2024/02/11 10:51:10;;;;;;;55.60;34.90;;;;;;;8.43;100.00;98646.81;103701;1313;23363;-59
2024/02/11 10:53:37;;;;;;;53.90;31.70;;;;;;;8.51;100.00;98645.46;103207;1315;23964;-59
2024/02/11 10:56:08;;;;;;;55.40;32.50;;;;;;;8.59;100.00;98642.23;106853;1299;22253;-60
2024/02/11 10:58:57;;;;;;;48.30;29.60;;;;;;;8.69;100.00;98636.52;106983;1316;22316;-59
2024/02/11 11:01:24;;;;;;;50.30;31.50;;;;;;;8.79;100.00;98635.60;103434;1316;22681;-59
2024/02/11 11:03:51;;;;;;;45.80;28.80;;;;;;;8.82;100.00;98632.90;104910;1312;22691;-59
2024/02/11 11:06:20;;;;;;;47.00;29.90;;;;;;;8.84;100.00;98633.13;103299;1298;22609;-58
2024/02/11 11:08:47;;;;;;;49.60;28.70;;;;;;;8.83;100.00;98628.73;106878;1316;22828;-59
2024/02/11 11:11:26;;;;;;;46.20;28.20;;;;;;;8.79;100.00;98629.77;106849;1316;22484;-59